sensor_id;sensor_type;location;lat;lon;timestamp;pressure;altitude;pressure_sealevel;temperature
23208;BMP180;11773;52.570;13.052;2023-07-13T00:00:20;101065.00;;;25.40
23208;BMP180;11773;52.570;13.052;2023-07-13T00:02:50;101059.00;;;25.40
23208;BMP180;11773;52.570;13.052;2023-07-13T00:05:23;101061.00;;;25.40
23208;BMP180;11773;52.570;13.052;2023-07-13T00:07:53;101062.00;;;25.30
23208;BMP180;11773;52.570;13.052;2023-07-13T00:10:23;101051.00;;;25.30
23208;BMP180;11773;52.570;13.052;2023-07-13T00:12:54;101058.00;;;25.30
23208;BMP180;11773;52.570;13.052;2023-07-13T00:15:26;101056.00;;;25.30
23208;BMP180;11773;52.570;13.052;2023-07-13T00:17:56;101054.00;;;25.20
23208;BMP180;11773;52.570;13.052;2023-07-13T00:20:26;101045.00;;;25.20
23208;BMP180;11773;52.570;13.052;2023-07-13T00:22:55;101058.00;;;25.20
23208;BMP180;11773;52.570;13.052;2023-07-13T00:25:25;101044.00;;;25.20
23208;BMP180;11773;52.570;13.052;2023-07-13T00:27:57;101057.00;;;25.20
23208;BMP180;11773;52.570;13.052;2023-07-13T00:30:26;101068.00;;;25.20
23208;BMP180;11773;52.570;13.052;2023-07-13T00:32:56;101061.00;;;25.10
23208;BMP180;11773;52.570;13.052;2023-07-13T00:35:29;101051.00;;;25.10
23208;BMP180;11773;52.570;13.052;2023-07-13T00:37:58;101051.00;;;25.00
23208;BMP180;11773;52.570;13.052;2023-07-13T00:40:28;101059.00;;;25.00
23208;BMP180;11773;52.570;13.052;2023-07-13T00:42:59;101048.00;;;25.00
23208;BMP180;11773;52.570;13.052;2023-07-13T00:48:03;101061.00;;;24.90
23208;BMP180;11773;52.570;13.052;2023-07-13T00:50:32;101055.00;;;24.90
23208;BMP180;11773;52.570;13.052;2023-07-13T00:53:02;101048.00;;;24.90
23208;BMP180;11773;52.570;13.052;2023-07-13T00:55:32;101031.00;;;24.90
23208;BMP180;11773;52.570;13.052;2023-07-13T00:58:03;101038.00;;;24.80
23208;BMP180;11773;52.570;13.052;2023-07-13T01:00:38;101047.00;;;24.80
23208;BMP180;11773;52.570;13.052;2023-07-13T01:03:08;101045.00;;;24.80
23208;BMP180;11773;52.570;13.052;2023-07-13T01:05:38;101053.00;;;24.80
23208;BMP180;11773;52.570;13.052;2023-07-13T01:08:08;101060.00;;;24.70
23208;BMP180;11773;52.570;13.052;2023-07-13T01:10:37;101056.00;;;24.70
23208;BMP180;11773;52.570;13.052;2023-07-13T01:13:11;101073.00;;;24.70
23208;BMP180;11773;52.570;13.052;2023-07-13T01:15:44;101056.00;;;24.60
23208;BMP180;11773;52.570;13.052;2023-07-13T01:18:26;101052.00;;;24.60
23208;BMP180;11773;52.570;13.052;2023-07-13T01:21:02;101051.00;;;24.60
23208;BMP180;11773;52.570;13.052;2023-07-13T01:23:33;101052.00;;;24.60
23208;BMP180;11773;52.570;13.052;2023-07-13T01:26:03;101058.00;;;24.50
23208;BMP180;11773;52.570;13.052;2023-07-13T01:28:32;101070.00;;;24.50
23208;BMP180;11773;52.570;13.052;2023-07-13T01:31:04;101064.00;;;24.50
23208;BMP180;11773;52.570;13.052;2023-07-13T01:33:36;101057.00;;;24.40
23208;BMP180;11773;52.570;13.052;2023-07-13T01:36:10;101069.00;;;24.40
23208;BMP180;11773;52.570;13.052;2023-07-13T01:38:40;101065.00;;;24.40
23208;BMP180;11773;52.570;13.052;2023-07-13T01:41:11;101067.00;;;24.30
23208;BMP180;11773;52.570;13.052;2023-07-13T01:43:41;101071.00;;;24.30
23208;BMP180;11773;52.570;13.052;2023-07-13T01:46:10;101074.00;;;24.30
23208;BMP180;11773;52.570;13.052;2023-07-13T01:48:42;101057.00;;;24.20
23208;BMP180;11773;52.570;13.052;2023-07-13T01:51:11;101054.00;;;24.20
23208;BMP180;11773;52.570;13.052;2023-07-13T01:53:41;101064.00;;;24.20
23208;BMP180;11773;52.570;13.052;2023-07-13T01:56:11;101045.00;;;24.20
23208;BMP180;11773;52.570;13.052;2023-07-13T01:58:41;101055.00;;;24.20
23208;BMP180;11773;52.570;13.052;2023-07-13T02:01:10;101059.00;;;24.10
23208;BMP180;11773;52.570;13.052;2023-07-13T02:03:40;101062.00;;;24.10
23208;BMP180;11773;52.570;13.052;2023-07-13T02:06:10;101059.00;;;24.10
23208;BMP180;11773;52.570;13.052;2023-07-13T02:08:41;101063.00;;;24.10
23208;BMP180;11773;52.570;13.052;2023-07-13T02:11:11;101056.00;;;24.00
23208;BMP180;11773;52.570;13.052;2023-07-13T02:13:41;101059.00;;;24.00
23208;BMP180;11773;52.570;13.052;2023-07-13T02:16:10;101073.00;;;24.00
23208;BMP180;11773;52.570;13.052;2023-07-13T02:18:41;101066.00;;;23.90
23208;BMP180;11773;52.570;13.052;2023-07-13T02:21:10;101067.00;;;23.90
23208;BMP180;11773;52.570;13.052;2023-07-13T02:23:40;101074.00;;;23.90
23208;BMP180;11773;52.570;13.052;2023-07-13T02:26:10;101067.00;;;23.90
23208;BMP180;11773;52.570;13.052;2023-07-13T02:28:40;101072.00;;;23.90
23208;BMP180;11773;52.570;13.052;2023-07-13T02:31:14;101083.00;;;23.90
23208;BMP180;11773;52.570;13.052;2023-07-13T02:33:44;101084.00;;;23.90
23208;BMP180;11773;52.570;13.052;2023-07-13T02:36:14;101081.00;;;23.90
23208;BMP180;11773;52.570;13.052;2023-07-13T02:38:44;101070.00;;;23.90
23208;BMP180;11773;52.570;13.052;2023-07-13T02:41:14;101065.00;;;23.90
23208;BMP180;11773;52.570;13.052;2023-07-13T02:43:44;101054.00;;;23.90
23208;BMP180;11773;52.570;13.052;2023-07-13T02:46:14;101063.00;;;23.90
23208;BMP180;11773;52.570;13.052;2023-07-13T02:48:43;101057.00;;;23.90
23208;BMP180;11773;52.570;13.052;2023-07-13T02:51:13;101053.00;;;23.80
23208;BMP180;11773;52.570;13.052;2023-07-13T02:53:42;101065.00;;;23.80
23208;BMP180;11773;52.570;13.052;2023-07-13T02:56:12;101068.00;;;23.90
23208;BMP180;11773;52.570;13.052;2023-07-13T02:58:43;101062.00;;;23.80
23208;BMP180;11773;52.570;13.052;2023-07-13T03:01:13;101059.00;;;23.80
23208;BMP180;11773;52.570;13.052;2023-07-13T03:03:45;101059.00;;;23.80
23208;BMP180;11773;52.570;13.052;2023-07-13T03:06:16;101083.00;;;23.80
23208;BMP180;11773;52.570;13.052;2023-07-13T03:08:46;101084.00;;;23.80
23208;BMP180;11773;52.570;13.052;2023-07-13T03:11:19;101090.00;;;23.80
23208;BMP180;11773;52.570;13.052;2023-07-13T03:13:49;101073.00;;;23.80
23208;BMP180;11773;52.570;13.052;2023-07-13T03:16:19;101099.00;;;23.70
23208;BMP180;11773;52.570;13.052;2023-07-13T03:18:49;101094.00;;;23.70
23208;BMP180;11773;52.570;13.052;2023-07-13T03:21:18;101099.00;;;23.60
23208;BMP180;11773;52.570;13.052;2023-07-13T03:23:48;101101.00;;;23.60
23208;BMP180;11773;52.570;13.052;2023-07-13T03:26:20;101111.00;;;23.50
23208;BMP180;11773;52.570;13.052;2023-07-13T03:28:50;101094.00;;;23.50
23208;BMP180;11773;52.570;13.052;2023-07-13T03:31:26;101092.00;;;23.50
23208;BMP180;11773;52.570;13.052;2023-07-13T03:33:57;101104.00;;;23.40
23208;BMP180;11773;52.570;13.052;2023-07-13T03:36:29;101094.00;;;23.40
23208;BMP180;11773;52.570;13.052;2023-07-13T03:39:01;101096.00;;;23.40
23208;BMP180;11773;52.570;13.052;2023-07-13T03:41:31;101095.00;;;23.40
23208;BMP180;11773;52.570;13.052;2023-07-13T03:44:01;101106.00;;;23.40
23208;BMP180;11773;52.570;13.052;2023-07-13T03:46:31;101114.00;;;23.40
23208;BMP180;11773;52.570;13.052;2023-07-13T03:49:03;101108.00;;;23.30
23208;BMP180;11773;52.570;13.052;2023-07-13T03:51:33;101121.00;;;23.30
23208;BMP180;11773;52.570;13.052;2023-07-13T03:54:03;101106.00;;;23.30
23208;BMP180;11773;52.570;13.052;2023-07-13T03:56:33;101108.00;;;23.30
23208;BMP180;11773;52.570;13.052;2023-07-13T03:59:03;101120.00;;;23.30
23208;BMP180;11773;52.570;13.052;2023-07-13T04:01:33;101104.00;;;23.20
23208;BMP180;11773;52.570;13.052;2023-07-13T04:04:02;101110.00;;;23.20
23208;BMP180;11773;52.570;13.052;2023-07-13T04:06:33;101122.00;;;23.20
23208;BMP180;11773;52.570;13.052;2023-07-13T04:09:04;101115.00;;;23.20
23208;BMP180;11773;52.570;13.052;2023-07-13T04:11:34;101120.00;;;23.20
23208;BMP180;11773;52.570;13.052;2023-07-13T04:14:06;101113.00;;;23.20
23208;BMP180;11773;52.570;13.052;2023-07-13T04:16:36;101129.00;;;23.20
23208;BMP180;11773;52.570;13.052;2023-07-13T04:19:06;101113.00;;;23.20
23208;BMP180;11773;52.570;13.052;2023-07-13T04:21:36;101120.00;;;23.20
23208;BMP180;11773;52.570;13.052;2023-07-13T04:24:06;101125.00;;;23.20
23208;BMP180;11773;52.570;13.052;2023-07-13T04:26:36;101128.00;;;23.20
23208;BMP180;11773;52.570;13.052;2023-07-13T04:29:07;101133.00;;;23.20
23208;BMP180;11773;52.570;13.052;2023-07-13T04:31:37;101124.00;;;23.20
23208;BMP180;11773;52.570;13.052;2023-07-13T04:34:07;101124.00;;;23.20
23208;BMP180;11773;52.570;13.052;2023-07-13T04:36:36;101133.00;;;23.30
23208;BMP180;11773;52.570;13.052;2023-07-13T04:39:06;101134.00;;;23.30
23208;BMP180;11773;52.570;13.052;2023-07-13T04:41:36;101143.00;;;23.30
23208;BMP180;11773;52.570;13.052;2023-07-13T04:44:05;101140.00;;;23.30
23208;BMP180;11773;52.570;13.052;2023-07-13T04:46:35;101152.00;;;23.40
23208;BMP180;11773;52.570;13.052;2023-07-13T04:49:05;101160.00;;;23.40
23208;BMP180;11773;52.570;13.052;2023-07-13T04:51:35;101147.00;;;23.50
23208;BMP180;11773;52.570;13.052;2023-07-13T04:54:05;101144.00;;;23.50
23208;BMP180;11773;52.570;13.052;2023-07-13T04:56:36;101160.00;;;23.50
23208;BMP180;11773;52.570;13.052;2023-07-13T04:59:05;101139.00;;;23.60
23208;BMP180;11773;52.570;13.052;2023-07-13T05:01:35;101141.00;;;23.60
23208;BMP180;11773;52.570;13.052;2023-07-13T05:04:05;101154.00;;;23.70
23208;BMP180;11773;52.570;13.052;2023-07-13T05:06:34;101152.00;;;23.70
23208;BMP180;11773;52.570;13.052;2023-07-13T05:09:04;101160.00;;;23.80
23208;BMP180;11773;52.570;13.052;2023-07-13T05:11:34;101154.00;;;23.90
23208;BMP180;11773;52.570;13.052;2023-07-13T05:14:03;101143.00;;;23.90
23208;BMP180;11773;52.570;13.052;2023-07-13T05:16:33;101140.00;;;23.90
23208;BMP180;11773;52.570;13.052;2023-07-13T05:19:03;101136.00;;;24.00
23208;BMP180;11773;52.570;13.052;2023-07-13T05:21:33;101145.00;;;24.10
23208;BMP180;11773;52.570;13.052;2023-07-13T05:24:03;101152.00;;;24.20
23208;BMP180;11773;52.570;13.052;2023-07-13T05:26:35;101145.00;;;24.40
23208;BMP180;11773;52.570;13.052;2023-07-13T05:29:04;101162.00;;;24.50
23208;BMP180;11773;52.570;13.052;2023-07-13T05:31:34;101151.00;;;24.80
23208;BMP180;11773;52.570;13.052;2023-07-13T05:34:06;101158.00;;;25.00
23208;BMP180;11773;52.570;13.052;2023-07-13T05:36:35;101163.00;;;25.20
23208;BMP180;11773;52.570;13.052;2023-07-13T05:39:05;101176.00;;;25.50
23208;BMP180;11773;52.570;13.052;2023-07-13T05:41:36;101170.00;;;25.80
23208;BMP180;11773;52.570;13.052;2023-07-13T05:44:05;101170.00;;;26.00
23208;BMP180;11773;52.570;13.052;2023-07-13T05:46:35;101182.00;;;26.30
23208;BMP180;11773;52.570;13.052;2023-07-13T05:49:04;101172.00;;;26.50
23208;BMP180;11773;52.570;13.052;2023-07-13T05:51:34;101180.00;;;26.80
23208;BMP180;11773;52.570;13.052;2023-07-13T05:54:03;101189.00;;;27.00
23208;BMP180;11773;52.570;13.052;2023-07-13T05:56:33;101184.00;;;27.30
23208;BMP180;11773;52.570;13.052;2023-07-13T05:59:03;101172.00;;;27.50
23208;BMP180;11773;52.570;13.052;2023-07-13T06:01:32;101176.00;;;27.70
23208;BMP180;11773;52.570;13.052;2023-07-13T06:04:02;101188.00;;;28.00
23208;BMP180;11773;52.570;13.052;2023-07-13T06:06:32;101174.00;;;28.20
23208;BMP180;11773;52.570;13.052;2023-07-13T06:09:02;101187.00;;;28.40
23208;BMP180;11773;52.570;13.052;2023-07-13T06:11:32;101172.00;;;28.60
23208;BMP180;11773;52.570;13.052;2023-07-13T06:14:01;101178.00;;;28.70
23208;BMP180;11773;52.570;13.052;2023-07-13T06:16:32;101190.00;;;28.90
23208;BMP180;11773;52.570;13.052;2023-07-13T06:19:01;101190.00;;;29.10
23208;BMP180;11773;52.570;13.052;2023-07-13T06:21:31;101187.00;;;29.30
23208;BMP180;11773;52.570;13.052;2023-07-13T06:24:01;101196.00;;;29.40
23208;BMP180;11773;52.570;13.052;2023-07-13T06:26:30;101196.00;;;29.50
23208;BMP180;11773;52.570;13.052;2023-07-13T06:29:00;101186.00;;;29.60
23208;BMP180;11773;52.570;13.052;2023-07-13T06:31:31;101178.00;;;29.70
23208;BMP180;11773;52.570;13.052;2023-07-13T06:34:01;101185.00;;;29.80
23208;BMP180;11773;52.570;13.052;2023-07-13T06:36:30;101182.00;;;29.80
23208;BMP180;11773;52.570;13.052;2023-07-13T06:39:00;101178.00;;;29.80
23208;BMP180;11773;52.570;13.052;2023-07-13T06:41:29;101180.00;;;29.80
23208;BMP180;11773;52.570;13.052;2023-07-13T06:43:59;101176.00;;;29.80
23208;BMP180;11773;52.570;13.052;2023-07-13T06:46:30;101185.00;;;29.80
23208;BMP180;11773;52.570;13.052;2023-07-13T06:48:59;101163.00;;;29.80
23208;BMP180;11773;52.570;13.052;2023-07-13T06:51:29;101173.00;;;29.80
23208;BMP180;11773;52.570;13.052;2023-07-13T06:53:58;101168.00;;;29.80
23208;BMP180;11773;52.570;13.052;2023-07-13T06:56:28;101163.00;;;29.80
23208;BMP180;11773;52.570;13.052;2023-07-13T06:58:57;101165.00;;;29.80
23208;BMP180;11773;52.570;13.052;2023-07-13T07:01:27;101166.00;;;29.80
23208;BMP180;11773;52.570;13.052;2023-07-13T07:03:57;101180.00;;;29.80
23208;BMP180;11773;52.570;13.052;2023-07-13T07:06:27;101192.00;;;29.90
23208;BMP180;11773;52.570;13.052;2023-07-13T07:08:57;101193.00;;;29.90
23208;BMP180;11773;52.570;13.052;2023-07-13T07:11:27;101184.00;;;30.00
23208;BMP180;11773;52.570;13.052;2023-07-13T07:13:56;101192.00;;;30.00
23208;BMP180;11773;52.570;13.052;2023-07-13T07:16:26;101184.00;;;30.10
23208;BMP180;11773;52.570;13.052;2023-07-13T07:18:56;101196.00;;;30.10
23208;BMP180;11773;52.570;13.052;2023-07-13T07:21:25;101189.00;;;30.20
23208;BMP180;11773;52.570;13.052;2023-07-13T07:23:55;101190.00;;;30.30
23208;BMP180;11773;52.570;13.052;2023-07-13T07:26:26;101200.00;;;30.30
23208;BMP180;11773;52.570;13.052;2023-07-13T07:28:58;101184.00;;;30.40
23208;BMP180;11773;52.570;13.052;2023-07-13T07:31:29;101202.00;;;30.40
23208;BMP180;11773;52.570;13.052;2023-07-13T07:34:00;101198.00;;;30.40
23208;BMP180;11773;52.570;13.052;2023-07-13T07:36:30;101201.00;;;30.40
23208;BMP180;11773;52.570;13.052;2023-07-13T07:39:01;101201.00;;;30.40
23208;BMP180;11773;52.570;13.052;2023-07-13T07:41:31;101213.00;;;30.40
23208;BMP180;11773;52.570;13.052;2023-07-13T07:44:02;101205.00;;;30.40
23208;BMP180;11773;52.570;13.052;2023-07-13T07:46:32;101207.00;;;30.40
23208;BMP180;11773;52.570;13.052;2023-07-13T07:49:02;101204.00;;;30.40
23208;BMP180;11773;52.570;13.052;2023-07-13T07:51:31;101209.00;;;30.40
23208;BMP180;11773;52.570;13.052;2023-07-13T07:54:01;101204.00;;;30.40
23208;BMP180;11773;52.570;13.052;2023-07-13T07:56:31;101197.00;;;30.40
23208;BMP180;11773;52.570;13.052;2023-07-13T07:59:02;101204.00;;;30.30
23208;BMP180;11773;52.570;13.052;2023-07-13T08:01:33;101201.00;;;30.30
23208;BMP180;11773;52.570;13.052;2023-07-13T08:04:05;101210.00;;;30.30
23208;BMP180;11773;52.570;13.052;2023-07-13T08:06:36;101221.00;;;30.30
23208;BMP180;11773;52.570;13.052;2023-07-13T08:09:08;101209.00;;;30.20
23208;BMP180;11773;52.570;13.052;2023-07-13T08:11:37;101206.00;;;30.20
23208;BMP180;11773;52.570;13.052;2023-07-13T08:14:09;101204.00;;;30.20
23208;BMP180;11773;52.570;13.052;2023-07-13T08:16:38;101203.00;;;30.20
23208;BMP180;11773;52.570;13.052;2023-07-13T08:19:08;101216.00;;;30.20
23208;BMP180;11773;52.570;13.052;2023-07-13T08:21:38;101209.00;;;30.30
23208;BMP180;11773;52.570;13.052;2023-07-13T08:24:08;101219.00;;;30.30
23208;BMP180;11773;52.570;13.052;2023-07-13T08:26:38;101220.00;;;30.30
23208;BMP180;11773;52.570;13.052;2023-07-13T08:29:08;101210.00;;;30.40
23208;BMP180;11773;52.570;13.052;2023-07-13T08:31:37;101209.00;;;30.40
23208;BMP180;11773;52.570;13.052;2023-07-13T08:34:07;101207.00;;;30.50
23208;BMP180;11773;52.570;13.052;2023-07-13T08:36:36;101214.00;;;30.50
23208;BMP180;11773;52.570;13.052;2023-07-13T08:39:06;101211.00;;;30.60
23208;BMP180;11773;52.570;13.052;2023-07-13T08:41:37;101201.00;;;30.70
23208;BMP180;11773;52.570;13.052;2023-07-13T08:44:17;101216.00;;;30.80
23208;BMP180;11773;52.570;13.052;2023-07-13T08:46:46;101205.00;;;30.80
23208;BMP180;11773;52.570;13.052;2023-07-13T08:49:21;101209.00;;;30.90
23208;BMP180;11773;52.570;13.052;2023-07-13T08:52:02;101205.00;;;30.90
23208;BMP180;11773;52.570;13.052;2023-07-13T08:54:38;101186.00;;;31.00
23208;BMP180;11773;52.570;13.052;2023-07-13T08:57:18;101212.00;;;31.00
23208;BMP180;11773;52.570;13.052;2023-07-13T08:59:48;101205.00;;;31.10
23208;BMP180;11773;52.570;13.052;2023-07-13T09:02:26;101217.00;;;31.20
23208;BMP180;11773;52.570;13.052;2023-07-13T09:05:18;101196.00;;;31.20
23208;BMP180;11773;52.570;13.052;2023-07-13T09:11:08;101208.00;;;31.30
23208;BMP180;11773;52.570;13.052;2023-07-13T09:14:02;101206.00;;;31.30
23208;BMP180;11773;52.570;13.052;2023-07-13T09:16:26;101201.00;;;31.40
23208;BMP180;11773;52.570;13.052;2023-07-13T09:19:03;101201.00;;;31.40
23208;BMP180;11773;52.570;13.052;2023-07-13T09:21:37;101217.00;;;31.50
23208;BMP180;11773;52.570;13.052;2023-07-13T09:24:36;101178.00;;;31.50
23208;BMP180;11773;52.570;13.052;2023-07-13T09:27:17;101213.00;;;31.60
23208;BMP180;11773;52.570;13.052;2023-07-13T09:29:40;101208.00;;;31.60
23208;BMP180;11773;52.570;13.052;2023-07-13T09:32:15;101222.00;;;31.60
23208;BMP180;11773;52.570;13.052;2023-07-13T09:34:54;101207.00;;;31.60
23208;BMP180;11773;52.570;13.052;2023-07-13T09:37:28;101218.00;;;31.60
23208;BMP180;11773;52.570;13.052;2023-07-13T09:40:01;101220.00;;;31.60
23208;BMP180;11773;52.570;13.052;2023-07-13T09:42:34;101228.00;;;31.60
23208;BMP180;11773;52.570;13.052;2023-07-13T09:45:04;101204.00;;;31.50
23208;BMP180;11773;52.570;13.052;2023-07-13T09:47:39;101202.00;;;31.50
23208;BMP180;11773;52.570;13.052;2023-07-13T09:50:17;101212.00;;;31.40
23208;BMP180;11773;52.570;13.052;2023-07-13T09:52:49;101225.00;;;31.40
23208;BMP180;11773;52.570;13.052;2023-07-13T09:55:38;101214.00;;;31.30
23208;BMP180;11773;52.570;13.052;2023-07-13T09:58:15;101232.00;;;31.20
23208;BMP180;11773;52.570;13.052;2023-07-13T10:01:01;101232.00;;;31.10
23208;BMP180;11773;52.570;13.052;2023-07-13T10:03:36;101237.00;;;31.10
23208;BMP180;11773;52.570;13.052;2023-07-13T10:06:18;101230.00;;;31.00
23208;BMP180;11773;52.570;13.052;2023-07-13T10:08:49;101229.00;;;31.00
23208;BMP180;11773;52.570;13.052;2023-07-13T10:11:29;101225.00;;;30.90
23208;BMP180;11773;52.570;13.052;2023-07-13T10:14:11;101227.00;;;30.90
23208;BMP180;11773;52.570;13.052;2023-07-13T10:16:43;101229.00;;;30.90
23208;BMP180;11773;52.570;13.052;2023-07-13T10:19:23;101227.00;;;30.90
23208;BMP180;11773;52.570;13.052;2023-07-13T10:22:00;101218.00;;;30.90
23208;BMP180;11773;52.570;13.052;2023-07-13T10:24:35;101215.00;;;30.90
23208;BMP180;11773;52.570;13.052;2023-07-13T10:27:27;101220.00;;;30.90
23208;BMP180;11773;52.570;13.052;2023-07-13T10:30:11;101216.00;;;30.90
23208;BMP180;11773;52.570;13.052;2023-07-13T10:32:37;101227.00;;;30.80
23208;BMP180;11773;52.570;13.052;2023-07-13T10:35:11;101225.00;;;30.80
23208;BMP180;11773;52.570;13.052;2023-07-13T10:37:53;101233.00;;;30.80
23208;BMP180;11773;52.570;13.052;2023-07-13T10:40:31;101222.00;;;30.80
23208;BMP180;11773;52.570;13.052;2023-07-13T10:43:04;101208.00;;;30.80
23208;BMP180;11773;52.570;13.052;2023-07-13T10:45:36;101213.00;;;30.90
23208;BMP180;11773;52.570;13.052;2023-07-13T10:48:09;101228.00;;;30.90
23208;BMP180;11773;52.570;13.052;2023-07-13T10:50:45;101221.00;;;30.90
23208;BMP180;11773;52.570;13.052;2023-07-13T10:53:39;101218.00;;;30.90
23208;BMP180;11773;52.570;13.052;2023-07-13T10:56:31;101222.00;;;31.00
23208;BMP180;11773;52.570;13.052;2023-07-13T10:59:27;101205.00;;;31.00
23208;BMP180;11773;52.570;13.052;2023-07-13T11:02:09;101214.00;;;31.00
23208;BMP180;11773;52.570;13.052;2023-07-13T11:04:47;101214.00;;;31.00
23208;BMP180;11773;52.570;13.052;2023-07-13T11:09:59;101212.00;;;31.10
23208;BMP180;11773;52.570;13.052;2023-07-13T11:12:54;101219.00;;;31.10
23208;BMP180;11773;52.570;13.052;2023-07-13T11:15:44;101227.00;;;31.20
23208;BMP180;11773;52.570;13.052;2023-07-13T11:18:21;101244.00;;;31.20
23208;BMP180;11773;52.570;13.052;2023-07-13T11:20:51;101221.00;;;31.30
23208;BMP180;11773;52.570;13.052;2023-07-13T11:23:27;101222.00;;;31.30
23208;BMP180;11773;52.570;13.052;2023-07-13T11:25:59;101221.00;;;31.30
23208;BMP180;11773;52.570;13.052;2023-07-13T11:28:31;101233.00;;;31.40
23208;BMP180;11773;52.570;13.052;2023-07-13T11:31:10;101229.00;;;31.40
23208;BMP180;11773;52.570;13.052;2023-07-13T11:34:02;101235.00;;;31.30
23208;BMP180;11773;52.570;13.052;2023-07-13T11:36:23;101227.00;;;31.30
23208;BMP180;11773;52.570;13.052;2023-07-13T11:39:03;101224.00;;;31.30
23208;BMP180;11773;52.570;13.052;2023-07-13T11:41:37;101226.00;;;31.30
23208;BMP180;11773;52.570;13.052;2023-07-13T11:44:18;101220.00;;;31.30
23208;BMP180;11773;52.570;13.052;2023-07-13T11:46:50;101222.00;;;31.30
23208;BMP180;11773;52.570;13.052;2023-07-13T11:49:24;101218.00;;;31.30
23208;BMP180;11773;52.570;13.052;2023-07-13T11:51:58;101219.00;;;31.30
23208;BMP180;11773;52.570;13.052;2023-07-13T11:54:49;101220.00;;;31.30
23208;BMP180;11773;52.570;13.052;2023-07-13T11:57:32;101223.00;;;31.30
23208;BMP180;11773;52.570;13.052;2023-07-13T12:00:11;101214.00;;;31.40
23208;BMP180;11773;52.570;13.052;2023-07-13T12:02:45;101210.00;;;31.40
23208;BMP180;11773;52.570;13.052;2023-07-13T12:05:18;101216.00;;;31.40
23208;BMP180;11773;52.570;13.052;2023-07-13T12:07:49;101222.00;;;31.50
23208;BMP180;11773;52.570;13.052;2023-07-13T12:10:29;101216.00;;;31.50
23208;BMP180;11773;52.570;13.052;2023-07-13T12:13:05;101210.00;;;31.60
23208;BMP180;11773;52.570;13.052;2023-07-13T12:15:45;101214.00;;;31.60
23208;BMP180;11773;52.570;13.052;2023-07-13T12:18:21;101209.00;;;31.70
23208;BMP180;11773;52.570;13.052;2023-07-13T12:20:55;101218.00;;;31.70
23208;BMP180;11773;52.570;13.052;2023-07-13T12:23:47;101213.00;;;31.80
23208;BMP180;11773;52.570;13.052;2023-07-13T12:26:19;101211.00;;;31.80
23208;BMP180;11773;52.570;13.052;2023-07-13T12:28:52;101220.00;;;31.80
23208;BMP180;11773;52.570;13.052;2023-07-13T12:31:36;101208.00;;;31.80
23208;BMP180;11773;52.570;13.052;2023-07-13T12:37:02;101229.00;;;31.90
23208;BMP180;11773;52.570;13.052;2023-07-13T12:39:37;101218.00;;;31.90
23208;BMP180;11773;52.570;13.052;2023-07-13T12:42:28;101221.00;;;31.90
23208;BMP180;11773;52.570;13.052;2023-07-13T12:45:05;101210.00;;;31.80
23208;BMP180;11773;52.570;13.052;2023-07-13T12:47:41;101210.00;;;31.80
23208;BMP180;11773;52.570;13.052;2023-07-13T12:50:21;101206.00;;;31.80
23208;BMP180;11773;52.570;13.052;2023-07-13T12:52:54;101210.00;;;31.80
23208;BMP180;11773;52.570;13.052;2023-07-13T12:55:27;101215.00;;;31.80
23208;BMP180;11773;52.570;13.052;2023-07-13T12:57:59;101215.00;;;31.80
23208;BMP180;11773;52.570;13.052;2023-07-13T13:00:37;101225.00;;;31.80
23208;BMP180;11773;52.570;13.052;2023-07-13T13:06:17;101221.00;;;31.80
23208;BMP180;11773;52.570;13.052;2023-07-13T13:08:38;101209.00;;;31.80
23208;BMP180;11773;52.570;13.052;2023-07-13T13:11:09;101216.00;;;31.80
23208;BMP180;11773;52.570;13.052;2023-07-13T13:13:39;101217.00;;;31.80
23208;BMP180;11773;52.570;13.052;2023-07-13T13:16:35;101224.00;;;31.90
23208;BMP180;11773;52.570;13.052;2023-07-13T13:19:19;101213.00;;;31.80
23208;BMP180;11773;52.570;13.052;2023-07-13T13:21:52;101218.00;;;31.80
23208;BMP180;11773;52.570;13.052;2023-07-13T13:24:25;101214.00;;;31.80
23208;BMP180;11773;52.570;13.052;2023-07-13T13:26:55;101199.00;;;31.90
23208;BMP180;11773;52.570;13.052;2023-07-13T13:29:31;101208.00;;;31.90
23208;BMP180;11773;52.570;13.052;2023-07-13T13:32:01;101211.00;;;31.90
23208;BMP180;11773;52.570;13.052;2023-07-13T13:34:32;101217.00;;;32.00
23208;BMP180;11773;52.570;13.052;2023-07-13T13:37:01;101208.00;;;31.90
23208;BMP180;11773;52.570;13.052;2023-07-13T13:39:36;101221.00;;;32.00
23208;BMP180;11773;52.570;13.052;2023-07-13T13:42:10;101214.00;;;32.00
23208;BMP180;11773;52.570;13.052;2023-07-13T13:44:40;101215.00;;;32.00
23208;BMP180;11773;52.570;13.052;2023-07-13T13:49:58;101211.00;;;32.00
23208;BMP180;11773;52.570;13.052;2023-07-13T13:52:29;101221.00;;;32.00
23208;BMP180;11773;52.570;13.052;2023-07-13T13:54:58;101229.00;;;32.00
23208;BMP180;11773;52.570;13.052;2023-07-13T13:57:28;101230.00;;;32.00
23208;BMP180;11773;52.570;13.052;2023-07-13T13:59:59;101212.00;;;32.00
23208;BMP180;11773;52.570;13.052;2023-07-13T14:02:30;101222.00;;;32.00
23208;BMP180;11773;52.570;13.052;2023-07-13T14:05:03;101216.00;;;32.00
23208;BMP180;11773;52.570;13.052;2023-07-13T14:07:34;101223.00;;;32.00
23208;BMP180;11773;52.570;13.052;2023-07-13T14:10:16;101230.00;;;32.00
23208;BMP180;11773;52.570;13.052;2023-07-13T14:12:42;101216.00;;;32.00
23208;BMP180;11773;52.570;13.052;2023-07-13T14:15:28;101224.00;;;32.00
23208;BMP180;11773;52.570;13.052;2023-07-13T14:17:59;101218.00;;;32.00
23208;BMP180;11773;52.570;13.052;2023-07-13T14:20:29;101227.00;;;32.00
23208;BMP180;11773;52.570;13.052;2023-07-13T14:22:59;101213.00;;;32.10
23208;BMP180;11773;52.570;13.052;2023-07-13T14:25:29;101224.00;;;32.10
23208;BMP180;11773;52.570;13.052;2023-07-13T14:28:00;101212.00;;;32.10
23208;BMP180;11773;52.570;13.052;2023-07-13T14:30:31;101216.00;;;32.10